Pernell, Oklahoma
Current Conditions -  °F | °C
As of 5:15 PM on Thursday 27 Nov 2014 (Local Time) from KPVJ Reporting Station
Clear Clear  
Wind Chill: 51°   Ceiling: Unl
Heat Index: 51°   Visibility: 10mi
Dew Point: 22°   Wind: 6mph
Humidity: 32%   Direction: 180°S
Pressure: 30.37"   Gusts: NA
Location:  34.56°N, 97.5°W
Report Text: KPVJ 272315Z AUTO 18005KT 10SM CLR 10/M06 A3037 RMK AO2 T01041057
Loading
Personal Weather Stations






























Interactive Weather Map New forecast layout! Learn more

10-Day Weather Forecast

Advertisements
Track Severe Weather on mobile